sensor_id;sensor_type;location;lat;lon;timestamp;temperature;humidity
81366;DHT22;77350;51.990;22.766;2024-03-25T00:12:09;1.60;73.50
81366;DHT22;77350;51.990;22.766;2024-03-25T00:27:15;1.80;76.20
81366;DHT22;77350;51.990;22.766;2024-03-25T00:42:20;1.70;75.00
81366;DHT22;77350;51.990;22.766;2024-03-25T00:57:25;1.50;76.60
81366;DHT22;77350;51.990;22.766;2024-03-25T01:12:30;1.30;75.80
81366;DHT22;77350;51.990;22.766;2024-03-25T01:27:35;1.30;75.40
81366;DHT22;77350;51.990;22.766;2024-03-25T01:42:40;1.30;75.00
81366;DHT22;77350;51.990;22.766;2024-03-25T01:57:46;1.30;75.80
81366;DHT22;77350;51.990;22.766;2024-03-25T02:12:52;1.00;75.50
81366;DHT22;77350;51.990;22.766;2024-03-25T02:27:57;1.30;75.50
81366;DHT22;77350;51.990;22.766;2024-03-25T02:43:03;1.20;75.60
81366;DHT22;77350;51.990;22.766;2024-03-25T02:58:09;1.20;76.70
81366;DHT22;77350;51.990;22.766;2024-03-25T03:13:15;1.20;78.50
81366;DHT22;77350;51.990;22.766;2024-03-25T03:28:20;1.10;79.70
81366;DHT22;77350;51.990;22.766;2024-03-25T03:43:25;1.30;79.90
81366;DHT22;77350;51.990;22.766;2024-03-25T03:58:30;1.40;80.20
81366;DHT22;77350;51.990;22.766;2024-03-25T04:13:35;1.20;79.60
81366;DHT22;77350;51.990;22.766;2024-03-25T04:28:41;1.20;78.90
81366;DHT22;77350;51.990;22.766;2024-03-25T04:43:46;1.30;78.60
81366;DHT22;77350;51.990;22.766;2024-03-25T05:15:53;2.40;78.70
81366;DHT22;77350;51.990;22.766;2024-03-25T05:30:57;4.00;78.30
81366;DHT22;77350;51.990;22.766;2024-03-25T05:46:08;3.60;76.90
81366;DHT22;77350;51.990;22.766;2024-03-25T06:01:12;3.40;77.80
81366;DHT22;77350;51.990;22.766;2024-03-25T06:16:16;4.20;78.30
81366;DHT22;77350;51.990;22.766;2024-03-25T06:31:20;5.40;76.90
81366;DHT22;77350;51.990;22.766;2024-03-25T06:46:42;6.40;76.40
81366;DHT22;77350;51.990;22.766;2024-03-25T07:01:46;7.50;73.80
81366;DHT22;77350;51.990;22.766;2024-03-25T07:33:29;8.80;71.70
81366;DHT22;77350;51.990;22.766;2024-03-25T07:48:33;9.70;69.80
81366;DHT22;77350;51.990;22.766;2024-03-25T08:03:37;11.10;68.00
81366;DHT22;77350;51.990;22.766;2024-03-25T08:18:41;11.10;62.40
81366;DHT22;77350;51.990;22.766;2024-03-25T08:33:47;10.80;60.90
81366;DHT22;77350;51.990;22.766;2024-03-25T08:48:51;11.20;60.60
81366;DHT22;77350;51.990;22.766;2024-03-25T09:20:31;11.70;61.70
81366;DHT22;77350;51.990;22.766;2024-03-25T09:35:36;12.50;60.30
81366;DHT22;77350;51.990;22.766;2024-03-25T09:50:40;12.40;57.70
81366;DHT22;77350;51.990;22.766;2024-03-25T10:05:45;12.10;57.40
81366;DHT22;77350;51.990;22.766;2024-03-25T10:20:50;12.50;55.90
81366;DHT22;77350;51.990;22.766;2024-03-25T10:35:54;13.20;53.70
81366;DHT22;77350;51.990;22.766;2024-03-25T11:08:11;13.30;52.80
81366;DHT22;77350;51.990;22.766;2024-03-25T11:23:17;13.40;53.50
81366;DHT22;77350;51.990;22.766;2024-03-25T11:38:21;12.80;53.10
81366;DHT22;77350;51.990;22.766;2024-03-25T11:53:25;12.70;54.70
81366;DHT22;77350;51.990;22.766;2024-03-25T12:08:29;12.70;55.90
81366;DHT22;77350;51.990;22.766;2024-03-25T12:23:33;12.50;56.20
81366;DHT22;77350;51.990;22.766;2024-03-25T12:38:38;12.80;53.50
81366;DHT22;77350;51.990;22.766;2024-03-25T12:53:42;12.10;53.60
81366;DHT22;77350;51.990;22.766;2024-03-25T13:08:46;11.10;56.20
81366;DHT22;77350;51.990;22.766;2024-03-25T13:23:50;9.40;58.90
81366;DHT22;77350;51.990;22.766;2024-03-25T13:38:55;8.90;63.30
81366;DHT22;77350;51.990;22.766;2024-03-25T13:53:59;8.60;62.80
81366;DHT22;77350;51.990;22.766;2024-03-25T14:09:03;8.80;63.80
81366;DHT22;77350;51.990;22.766;2024-03-25T14:24:08;9.10;63.60
81366;DHT22;77350;51.990;22.766;2024-03-25T14:39:12;8.90;64.40
81366;DHT22;77350;51.990;22.766;2024-03-25T14:54:18;8.90;64.00
81366;DHT22;77350;51.990;22.766;2024-03-25T15:09:22;9.10;63.90
81366;DHT22;77350;51.990;22.766;2024-03-25T15:24:26;9.00;63.30
81366;DHT22;77350;51.990;22.766;2024-03-25T15:39:30;9.40;64.80
81366;DHT22;77350;51.990;22.766;2024-03-25T15:54:34;9.20;64.60
81366;DHT22;77350;51.990;22.766;2024-03-25T16:09:38;9.10;65.30
81366;DHT22;77350;51.990;22.766;2024-03-25T16:24:42;8.80;66.00
81366;DHT22;77350;51.990;22.766;2024-03-25T16:39:46;8.60;66.10
81366;DHT22;77350;51.990;22.766;2024-03-25T16:54:50;8.20;66.30
81366;DHT22;77350;51.990;22.766;2024-03-25T17:09:54;7.90;66.50
81366;DHT22;77350;51.990;22.766;2024-03-25T17:24:58;7.50;67.60
81366;DHT22;77350;51.990;22.766;2024-03-25T17:40:02;7.30;68.00
81366;DHT22;77350;51.990;22.766;2024-03-25T17:55:08;7.20;69.40
81366;DHT22;77350;51.990;22.766;2024-03-25T18:10:12;7.00;69.60
81366;DHT22;77350;51.990;22.766;2024-03-25T18:25:16;6.70;69.10
81366;DHT22;77350;51.990;22.766;2024-03-25T18:40:19;6.10;69.50
81366;DHT22;77350;51.990;22.766;2024-03-25T18:55:23;5.90;70.20
81366;DHT22;77350;51.990;22.766;2024-03-25T19:10:26;6.00;70.80
81366;DHT22;77350;51.990;22.766;2024-03-25T19:25:30;5.90;73.10
81366;DHT22;77350;51.990;22.766;2024-03-25T19:40:34;5.70;72.90
81366;DHT22;77350;51.990;22.766;2024-03-25T19:55:38;5.80;72.20
81366;DHT22;77350;51.990;22.766;2024-03-25T20:11:11;5.60;72.00
81366;DHT22;77350;51.990;22.766;2024-03-25T20:26:15;5.40;72.40
81366;DHT22;77350;51.990;22.766;2024-03-25T20:41:20;5.30;72.60
81366;DHT22;77350;51.990;22.766;2024-03-25T20:56:26;5.00;72.60
81366;DHT22;77350;51.990;22.766;2024-03-25T21:11:30;5.20;72.70
81366;DHT22;77350;51.990;22.766;2024-03-25T21:26:36;5.20;72.70
81366;DHT22;77350;51.990;22.766;2024-03-25T21:41:40;5.10;72.50
81366;DHT22;77350;51.990;22.766;2024-03-25T21:56:44;5.00;72.70
81366;DHT22;77350;51.990;22.766;2024-03-25T22:11:48;5.00;72.80
81366;DHT22;77350;51.990;22.766;2024-03-25T22:26:53;4.70;72.90
81366;DHT22;77350;51.990;22.766;2024-03-25T22:41:57;4.40;73.10
81366;DHT22;77350;51.990;22.766;2024-03-25T22:57:02;4.30;74.90
81366;DHT22;77350;51.990;22.766;2024-03-25T23:12:06;3.90;74.50
81366;DHT22;77350;51.990;22.766;2024-03-25T23:27:10;4.00;74.30
81366;DHT22;77350;51.990;22.766;2024-03-25T23:42:14;3.80;74.10
81366;DHT22;77350;51.990;22.766;2024-03-25T23:57:18;3.50;74.30
